首页
METAR-TAF:

METAR-TAF

机场 :

埃尔迈拉 / 康宁, 紐約州, 美国

纬度: 42-09-23N, 经度: 076-54-10W, 海拔: 291米

当前天气观测

该预报发布于54分钟前的18:53 UTC
风速12节,风向北转西北,有时为18节阵风
温度 1°C
湿度 51%
气压 1026 hPa
能見度: 16.1公里
阴天层高于4900英尺

METAR: KELM 191853Z 33012G18KT 10SM OVC049 01/M08 A3030 RMK AO2 PK WND 30028/1754 SLP271 T00061078

时间: 14:47 (19:47 UTC)

预报

该预报发布于2小时和21分钟前的17:26 UTC
预报有效从19日的 18点(UTC)到 20日的 18点(UTC)
风速11节,风向西北,有时为18节阵风
能見度: 10公里
少量云层高于3500英尺
多云层高于5000英尺
小雪
从 20日的 0000点(UTC)
风速7节,风向西
能見度: 10公里
散云层高于3000英尺
多云层高于4000英尺
从 20日的 1500点(UTC)
风速6节,风向西北
能見度: 10公里
多云层高于6000英尺

TAF: KELM 191726Z 1918/2018 31011G18KT P6SM -SN FEW035 BKN050 FM200000 28007KT P6SM SCT030 BKN040 FM201500 31006KT P6SM BKN060

超过4000个机场的气象观测和天气预报(METAR&TAF报告)。

可查询的气象台以黄色和红色小点在地图上表示。

将鼠标移到小点上方,可查看气象台名称。

然后点击查看天气观测和预报。

如需切换地图:点击带黑十字的绿色按钮放大地图;点击带横线的绿色按钮缩小地图;或者点击绿色箭头查看邻近地区的地图。


METAR-TAF: